sensor_id;sensor_type;location;lat;lon;timestamp;P1;durP1;ratioP1;P2;durP2;ratioP2
4089;SDS011;2059;48.538;12.146;2022-10-17T00:01:55;10.67;;;8.80;;
4089;SDS011;2059;48.538;12.146;2022-10-17T00:06:58;10.27;;;9.30;;
4089;SDS011;2059;48.538;12.146;2022-10-17T00:12:00;10.27;;;8.97;;
4089;SDS011;2059;48.538;12.146;2022-10-17T00:17:02;10.53;;;9.53;;
4089;SDS011;2059;48.538;12.146;2022-10-17T00:22:06;12.63;;;9.60;;
4089;SDS011;2059;48.538;12.146;2022-10-17T00:27:07;11.10;;;9.80;;
4089;SDS011;2059;48.538;12.146;2022-10-17T00:32:09;10.63;;;9.63;;
4089;SDS011;2059;48.538;12.146;2022-10-17T00:37:13;11.27;;;10.20;;
4089;SDS011;2059;48.538;12.146;2022-10-17T00:42:15;10.57;;;9.67;;
4089;SDS011;2059;48.538;12.146;2022-10-17T00:47:18;13.43;;;10.37;;
4089;SDS011;2059;48.538;12.146;2022-10-17T00:52:23;12.57;;;9.57;;
4089;SDS011;2059;48.538;12.146;2022-10-17T00:57:27;11.47;;;9.67;;
4089;SDS011;2059;48.538;12.146;2022-10-17T01:02:31;10.60;;;9.67;;
4089;SDS011;2059;48.538;12.146;2022-10-17T01:07:35;9.73;;;8.93;;
4089;SDS011;2059;48.538;12.146;2022-10-17T01:12:47;11.10;;;10.00;;
4089;SDS011;2059;48.538;12.146;2022-10-17T01:18:02;10.37;;;9.30;;
4089;SDS011;2059;48.538;12.146;2022-10-17T01:23:26;10.00;;;9.20;;
4089;SDS011;2059;48.538;12.146;2022-10-17T01:28:53;11.87;;;10.70;;
4089;SDS011;2059;48.538;12.146;2022-10-17T01:34:08;10.60;;;9.70;;
4089;SDS011;2059;48.538;12.146;2022-10-17T01:39:19;10.40;;;9.60;;
4089;SDS011;2059;48.538;12.146;2022-10-17T01:44:33;10.83;;;9.70;;
4089;SDS011;2059;48.538;12.146;2022-10-17T01:49:39;10.50;;;9.53;;
4089;SDS011;2059;48.538;12.146;2022-10-17T01:54:46;12.70;;;9.53;;
4089;SDS011;2059;48.538;12.146;2022-10-17T01:59:51;10.70;;;9.70;;
4089;SDS011;2059;48.538;12.146;2022-10-17T02:04:56;10.90;;;9.90;;
4089;SDS011;2059;48.538;12.146;2022-10-17T02:09:59;9.40;;;8.50;;
4089;SDS011;2059;48.538;12.146;2022-10-17T02:15:08;9.73;;;8.83;;
4089;SDS011;2059;48.538;12.146;2022-10-17T02:20:22;13.00;;;10.03;;
4089;SDS011;2059;48.538;12.146;2022-10-17T02:25:28;10.83;;;9.27;;
4089;SDS011;2059;48.538;12.146;2022-10-17T02:30:41;10.57;;;9.23;;
4089;SDS011;2059;48.538;12.146;2022-10-17T02:35:48;9.13;;;8.43;;
4089;SDS011;2059;48.538;12.146;2022-10-17T02:40:53;9.83;;;9.03;;
4089;SDS011;2059;48.538;12.146;2022-10-17T02:45:56;10.70;;;9.80;;
4089;SDS011;2059;48.538;12.146;2022-10-17T02:51:01;9.63;;;8.80;;
4089;SDS011;2059;48.538;12.146;2022-10-17T02:56:09;10.40;;;9.30;;
4089;SDS011;2059;48.538;12.146;2022-10-17T03:01:17;10.23;;;9.23;;
4089;SDS011;2059;48.538;12.146;2022-10-17T03:06:21;10.10;;;9.17;;
4089;SDS011;2059;48.538;12.146;2022-10-17T03:11:23;15.10;;;10.13;;
4089;SDS011;2059;48.538;12.146;2022-10-17T03:16:25;11.67;;;9.00;;
4089;SDS011;2059;48.538;12.146;2022-10-17T03:21:28;9.50;;;8.60;;
4089;SDS011;2059;48.538;12.146;2022-10-17T03:26:30;14.20;;;9.43;;
4089;SDS011;2059;48.538;12.146;2022-10-17T03:31:32;10.10;;;9.20;;
4089;SDS011;2059;48.538;12.146;2022-10-17T03:36:35;11.00;;;9.90;;
4089;SDS011;2059;48.538;12.146;2022-10-17T03:41:37;9.67;;;8.77;;
4089;SDS011;2059;48.538;12.146;2022-10-17T03:46:39;10.30;;;9.30;;
4089;SDS011;2059;48.538;12.146;2022-10-17T03:51:42;9.97;;;8.80;;
4089;SDS011;2059;48.538;12.146;2022-10-17T03:56:44;9.47;;;8.47;;
4089;SDS011;2059;48.538;12.146;2022-10-17T04:01:46;11.03;;;8.43;;
4089;SDS011;2059;48.538;12.146;2022-10-17T04:06:49;8.87;;;8.07;;
4089;SDS011;2059;48.538;12.146;2022-10-17T04:11:51;8.73;;;8.13;;
4089;SDS011;2059;48.538;12.146;2022-10-17T04:16:53;8.37;;;7.50;;
4089;SDS011;2059;48.538;12.146;2022-10-17T04:21:56;8.80;;;8.00;;
4089;SDS011;2059;48.538;12.146;2022-10-17T04:26:58;9.13;;;8.37;;
4089;SDS011;2059;48.538;12.146;2022-10-17T04:32:00;9.83;;;8.83;;
4089;SDS011;2059;48.538;12.146;2022-10-17T04:37:03;13.17;;;7.97;;
4089;SDS011;2059;48.538;12.146;2022-10-17T04:42:05;8.87;;;7.87;;
4089;SDS011;2059;48.538;12.146;2022-10-17T04:47:07;9.17;;;8.47;;
4089;SDS011;2059;48.538;12.146;2022-10-17T04:52:10;9.33;;;8.10;;
4089;SDS011;2059;48.538;12.146;2022-10-17T04:57:12;9.33;;;8.00;;
4089;SDS011;2059;48.538;12.146;2022-10-17T05:02:14;13.30;;;8.20;;
4089;SDS011;2059;48.538;12.146;2022-10-17T05:07:17;11.03;;;8.70;;
4089;SDS011;2059;48.538;12.146;2022-10-17T05:12:19;9.90;;;8.90;;
4089;SDS011;2059;48.538;12.146;2022-10-17T05:17:21;9.77;;;7.90;;
4089;SDS011;2059;48.538;12.146;2022-10-17T05:22:25;8.33;;;7.63;;
4089;SDS011;2059;48.538;12.146;2022-10-17T05:27:26;10.40;;;9.50;;
4089;SDS011;2059;48.538;12.146;2022-10-17T05:32:28;14.20;;;10.10;;
4089;SDS011;2059;48.538;12.146;2022-10-17T05:37:32;14.73;;;10.13;;
4089;SDS011;2059;48.538;12.146;2022-10-17T05:42:33;11.60;;;10.40;;
4089;SDS011;2059;48.538;12.146;2022-10-17T05:47:36;17.73;;;10.43;;
4089;SDS011;2059;48.538;12.146;2022-10-17T05:52:39;11.00;;;9.73;;
4089;SDS011;2059;48.538;12.146;2022-10-17T05:57:41;12.70;;;9.47;;
4089;SDS011;2059;48.538;12.146;2022-10-17T06:02:43;12.53;;;9.77;;
4089;SDS011;2059;48.538;12.146;2022-10-17T06:07:47;12.40;;;10.30;;
4089;SDS011;2059;48.538;12.146;2022-10-17T06:12:51;13.73;;;10.57;;
4089;SDS011;2059;48.538;12.146;2022-10-17T06:17:53;14.60;;;11.50;;
4089;SDS011;2059;48.538;12.146;2022-10-17T06:22:56;14.33;;;12.00;;
4089;SDS011;2059;48.538;12.146;2022-10-17T06:27:58;17.00;;;12.93;;
4089;SDS011;2059;48.538;12.146;2022-10-17T06:33:00;21.73;;;14.83;;
4089;SDS011;2059;48.538;12.146;2022-10-17T06:38:03;21.57;;;14.83;;
4089;SDS011;2059;48.538;12.146;2022-10-17T06:43:05;18.17;;;13.83;;
4089;SDS011;2059;48.538;12.146;2022-10-17T06:48:07;21.87;;;14.30;;
4089;SDS011;2059;48.538;12.146;2022-10-17T06:53:11;31.37;;;14.97;;
4089;SDS011;2059;48.538;12.146;2022-10-17T06:58:13;17.07;;;14.50;;
4089;SDS011;2059;48.538;12.146;2022-10-17T07:03:14;20.93;;;14.17;;
4089;SDS011;2059;48.538;12.146;2022-10-17T07:08:18;22.23;;;13.90;;
4089;SDS011;2059;48.538;12.146;2022-10-17T07:13:20;21.73;;;14.20;;
4089;SDS011;2059;48.538;12.146;2022-10-17T07:18:22;18.70;;;14.10;;
4089;SDS011;2059;48.538;12.146;2022-10-17T07:23:25;16.40;;;12.83;;
4089;SDS011;2059;48.538;12.146;2022-10-17T07:28:27;13.80;;;11.57;;
4089;SDS011;2059;48.538;12.146;2022-10-17T07:33:29;15.77;;;13.37;;
4089;SDS011;2059;48.538;12.146;2022-10-17T07:38:33;16.00;;;13.50;;
4089;SDS011;2059;48.538;12.146;2022-10-17T07:43:35;17.07;;;12.90;;
4089;SDS011;2059;48.538;12.146;2022-10-17T07:48:38;14.13;;;12.33;;
4089;SDS011;2059;48.538;12.146;2022-10-17T07:53:41;13.67;;;12.13;;
4089;SDS011;2059;48.538;12.146;2022-10-17T07:58:43;14.70;;;11.67;;
4089;SDS011;2059;48.538;12.146;2022-10-17T08:03:49;16.67;;;12.10;;
4089;SDS011;2059;48.538;12.146;2022-10-17T08:08:52;14.60;;;11.90;;
4089;SDS011;2059;48.538;12.146;2022-10-17T08:13:54;13.53;;;12.17;;
4089;SDS011;2059;48.538;12.146;2022-10-17T08:18:56;15.00;;;12.70;;
4089;SDS011;2059;48.538;12.146;2022-10-17T08:23:59;14.53;;;13.13;;
4089;SDS011;2059;48.538;12.146;2022-10-17T08:29:01;16.20;;;13.70;;
4089;SDS011;2059;48.538;12.146;2022-10-17T08:34:03;15.20;;;13.60;;
4089;SDS011;2059;48.538;12.146;2022-10-17T08:39:06;12.97;;;11.80;;
4089;SDS011;2059;48.538;12.146;2022-10-17T08:44:10;13.27;;;12.00;;
4089;SDS011;2059;48.538;12.146;2022-10-17T08:49:22;13.30;;;12.13;;
4089;SDS011;2059;48.538;12.146;2022-10-17T08:54:34;12.53;;;11.43;;
4089;SDS011;2059;48.538;12.146;2022-10-17T08:59:42;14.40;;;9.93;;
4089;SDS011;2059;48.538;12.146;2022-10-17T09:04:49;10.63;;;8.80;;
4089;SDS011;2059;48.538;12.146;2022-10-17T09:10:04;8.43;;;7.63;;
4089;SDS011;2059;48.538;12.146;2022-10-17T09:15:36;9.13;;;8.20;;
4089;SDS011;2059;48.538;12.146;2022-10-17T09:20:46;8.50;;;7.90;;
4089;SDS011;2059;48.538;12.146;2022-10-17T09:25:54;11.87;;;11.07;;
4089;SDS011;2059;48.538;12.146;2022-10-17T09:30:58;11.40;;;10.40;;
4089;SDS011;2059;48.538;12.146;2022-10-17T09:36:03;12.00;;;11.07;;
4089;SDS011;2059;48.538;12.146;2022-10-17T09:41:14;12.10;;;11.00;;
4089;SDS011;2059;48.538;12.146;2022-10-17T09:46:23;12.60;;;11.30;;
4089;SDS011;2059;48.538;12.146;2022-10-17T09:51:29;12.07;;;11.20;;
4089;SDS011;2059;48.538;12.146;2022-10-17T09:56:33;12.00;;;11.20;;
4089;SDS011;2059;48.538;12.146;2022-10-17T10:02:06;12.53;;;11.60;;
4089;SDS011;2059;48.538;12.146;2022-10-17T10:07:10;12.13;;;11.33;;
4089;SDS011;2059;48.538;12.146;2022-10-17T10:12:17;11.87;;;11.00;;
4089;SDS011;2059;48.538;12.146;2022-10-17T10:17:33;10.97;;;10.17;;
4089;SDS011;2059;48.538;12.146;2022-10-17T10:22:37;10.83;;;10.13;;
4089;SDS011;2059;48.538;12.146;2022-10-17T10:27:40;11.70;;;11.00;;
4089;SDS011;2059;48.538;12.146;2022-10-17T10:32:44;11.30;;;10.50;;
4089;SDS011;2059;48.538;12.146;2022-10-17T10:37:49;12.53;;;11.53;;
4089;SDS011;2059;48.538;12.146;2022-10-17T10:42:55;12.93;;;11.83;;
4089;SDS011;2059;48.538;12.146;2022-10-17T10:47:58;12.00;;;10.87;;
4089;SDS011;2059;48.538;12.146;2022-10-17T10:53:09;13.10;;;12.10;;
4089;SDS011;2059;48.538;12.146;2022-10-17T10:58:28;12.43;;;11.33;;
4089;SDS011;2059;48.538;12.146;2022-10-17T11:03:38;13.30;;;12.20;;
4089;SDS011;2059;48.538;12.146;2022-10-17T11:08:43;12.83;;;12.03;;
4089;SDS011;2059;48.538;12.146;2022-10-17T11:13:52;12.50;;;11.53;;
4089;SDS011;2059;48.538;12.146;2022-10-17T11:19:02;11.37;;;10.57;;
4089;SDS011;2059;48.538;12.146;2022-10-17T11:24:10;12.70;;;11.57;;
4089;SDS011;2059;48.538;12.146;2022-10-17T11:29:17;12.50;;;11.30;;
4089;SDS011;2059;48.538;12.146;2022-10-17T11:34:21;10.57;;;9.97;;
4089;SDS011;2059;48.538;12.146;2022-10-17T11:39:28;11.30;;;10.50;;
4089;SDS011;2059;48.538;12.146;2022-10-17T11:44:38;11.00;;;10.30;;
4089;SDS011;2059;48.538;12.146;2022-10-17T11:49:43;11.20;;;10.40;;
4089;SDS011;2059;48.538;12.146;2022-10-17T11:54:48;10.77;;;9.97;;
4089;SDS011;2059;48.538;12.146;2022-10-17T11:59:59;9.97;;;9.13;;
4089;SDS011;2059;48.538;12.146;2022-10-17T12:05:15;11.40;;;10.70;;
4089;SDS011;2059;48.538;12.146;2022-10-17T12:10:28;11.10;;;10.17;;
4089;SDS011;2059;48.538;12.146;2022-10-17T12:15:38;9.23;;;8.67;;
4089;SDS011;2059;48.538;12.146;2022-10-17T12:20:40;10.53;;;9.40;;
4089;SDS011;2059;48.538;12.146;2022-10-17T12:25:47;8.80;;;8.20;;
4089;SDS011;2059;48.538;12.146;2022-10-17T12:30:53;9.70;;;8.73;;
4089;SDS011;2059;48.538;12.146;2022-10-17T12:41:53;10.27;;;9.47;;
4089;SDS011;2059;48.538;12.146;2022-10-17T12:46:57;8.97;;;8.37;;
4089;SDS011;2059;48.538;12.146;2022-10-17T12:52:23;10.07;;;9.40;;
4089;SDS011;2059;48.538;12.146;2022-10-17T12:57:29;9.33;;;8.57;;
4089;SDS011;2059;48.538;12.146;2022-10-17T13:02:36;9.50;;;8.80;;
4089;SDS011;2059;48.538;12.146;2022-10-17T13:07:39;8.07;;;7.57;;
4089;SDS011;2059;48.538;12.146;2022-10-17T13:12:42;9.90;;;7.27;;
4089;SDS011;2059;48.538;12.146;2022-10-17T13:17:50;7.40;;;6.90;;
4089;SDS011;2059;48.538;12.146;2022-10-17T13:22:56;7.17;;;6.53;;
4089;SDS011;2059;48.538;12.146;2022-10-17T13:28:06;7.30;;;6.80;;
4089;SDS011;2059;48.538;12.146;2022-10-17T13:33:28;6.93;;;6.43;;
4089;SDS011;2059;48.538;12.146;2022-10-17T13:38:34;7.07;;;6.60;;
4089;SDS011;2059;48.538;12.146;2022-10-17T13:43:36;8.33;;;6.93;;
4089;SDS011;2059;48.538;12.146;2022-10-17T13:48:40;8.13;;;7.63;;
4089;SDS011;2059;48.538;12.146;2022-10-17T13:53:42;7.27;;;6.80;;
4089;SDS011;2059;48.538;12.146;2022-10-17T13:58:45;7.50;;;6.90;;
4089;SDS011;2059;48.538;12.146;2022-10-17T14:03:49;7.80;;;7.20;;
4089;SDS011;2059;48.538;12.146;2022-10-17T14:08:53;7.40;;;6.70;;
4089;SDS011;2059;48.538;12.146;2022-10-17T14:13:59;7.93;;;6.73;;
4089;SDS011;2059;48.538;12.146;2022-10-17T14:19:04;7.43;;;6.80;;
4089;SDS011;2059;48.538;12.146;2022-10-17T14:24:23;7.70;;;6.90;;
4089;SDS011;2059;48.538;12.146;2022-10-17T14:29:28;7.10;;;6.50;;
4089;SDS011;2059;48.538;12.146;2022-10-17T14:34:34;7.13;;;6.53;;
4089;SDS011;2059;48.538;12.146;2022-10-17T14:39:38;7.23;;;6.73;;
4089;SDS011;2059;48.538;12.146;2022-10-17T14:44:40;6.53;;;6.07;;
4089;SDS011;2059;48.538;12.146;2022-10-17T14:49:43;6.93;;;6.43;;
4089;SDS011;2059;48.538;12.146;2022-10-17T14:54:50;7.53;;;7.03;;
4089;SDS011;2059;48.538;12.146;2022-10-17T14:59:53;10.77;;;9.97;;
4089;SDS011;2059;48.538;12.146;2022-10-17T15:04:57;11.30;;;10.43;;
4089;SDS011;2059;48.538;12.146;2022-10-17T15:09:59;10.47;;;9.77;;
4089;SDS011;2059;48.538;12.146;2022-10-17T15:15:01;11.73;;;11.03;;
4089;SDS011;2059;48.538;12.146;2022-10-17T15:20:08;12.90;;;11.80;;
4089;SDS011;2059;48.538;12.146;2022-10-17T15:25:14;11.50;;;10.70;;
4089;SDS011;2059;48.538;12.146;2022-10-17T15:30:17;12.13;;;11.33;;
4089;SDS011;2059;48.538;12.146;2022-10-17T15:35:23;10.77;;;10.07;;
4089;SDS011;2059;48.538;12.146;2022-10-17T15:40:26;10.57;;;9.83;;
4089;SDS011;2059;48.538;12.146;2022-10-17T15:45:29;11.30;;;10.60;;
4089;SDS011;2059;48.538;12.146;2022-10-17T15:50:34;12.20;;;11.40;;
4089;SDS011;2059;48.538;12.146;2022-10-17T15:55:36;11.63;;;10.73;;
4089;SDS011;2059;48.538;12.146;2022-10-17T16:00:38;12.60;;;11.47;;
4089;SDS011;2059;48.538;12.146;2022-10-17T16:05:41;13.83;;;11.47;;
4089;SDS011;2059;48.538;12.146;2022-10-17T16:10:43;11.80;;;10.97;;
4089;SDS011;2059;48.538;12.146;2022-10-17T16:15:45;11.60;;;8.73;;
4089;SDS011;2059;48.538;12.146;2022-10-17T16:20:49;23.40;;;21.00;;
4089;SDS011;2059;48.538;12.146;2022-10-17T16:25:50;77.53;;;50.60;;
4089;SDS011;2059;48.538;12.146;2022-10-17T16:30:53;59.37;;;40.23;;
4089;SDS011;2059;48.538;12.146;2022-10-17T16:35:58;14.90;;;13.50;;
4089;SDS011;2059;48.538;12.146;2022-10-17T16:40:59;16.33;;;14.67;;
4089;SDS011;2059;48.538;12.146;2022-10-17T16:46:01;14.27;;;13.10;;
4089;SDS011;2059;48.538;12.146;2022-10-17T16:51:05;17.97;;;16.37;;
4089;SDS011;2059;48.538;12.146;2022-10-17T16:56:07;14.37;;;12.80;;
4089;SDS011;2059;48.538;12.146;2022-10-17T17:01:09;13.77;;;12.47;;
4089;SDS011;2059;48.538;12.146;2022-10-17T17:06:15;32.17;;;25.93;;
4089;SDS011;2059;48.538;12.146;2022-10-17T17:11:20;33.13;;;25.10;;
4089;SDS011;2059;48.538;12.146;2022-10-17T17:16:25;32.87;;;26.57;;
4089;SDS011;2059;48.538;12.146;2022-10-17T17:21:29;29.97;;;25.23;;
4089;SDS011;2059;48.538;12.146;2022-10-17T17:26:32;24.33;;;21.80;;
4089;SDS011;2059;48.538;12.146;2022-10-17T17:31:35;31.77;;;27.13;;
4089;SDS011;2059;48.538;12.146;2022-10-17T17:36:39;23.47;;;20.67;;
4089;SDS011;2059;48.538;12.146;2022-10-17T17:41:42;17.70;;;15.90;;
4089;SDS011;2059;48.538;12.146;2022-10-17T17:46:44;17.90;;;16.17;;
4089;SDS011;2059;48.538;12.146;2022-10-17T17:51:48;25.00;;;21.40;;
4089;SDS011;2059;48.538;12.146;2022-10-17T17:56:50;50.03;;;31.50;;
4089;SDS011;2059;48.538;12.146;2022-10-17T18:01:52;31.97;;;22.50;;
4089;SDS011;2059;48.538;12.146;2022-10-17T18:06:55;26.87;;;19.80;;
4089;SDS011;2059;48.538;12.146;2022-10-17T18:11:57;21.33;;;19.13;;
4089;SDS011;2059;48.538;12.146;2022-10-17T18:16:59;20.07;;;16.87;;
4089;SDS011;2059;48.538;12.146;2022-10-17T18:22:02;20.10;;;15.30;;
4089;SDS011;2059;48.538;12.146;2022-10-17T18:27:04;14.50;;;11.90;;
4089;SDS011;2059;48.538;12.146;2022-10-17T18:32:06;16.13;;;12.60;;
4089;SDS011;2059;48.538;12.146;2022-10-17T18:37:10;16.70;;;12.80;;
4089;SDS011;2059;48.538;12.146;2022-10-17T18:42:12;18.03;;;12.80;;
4089;SDS011;2059;48.538;12.146;2022-10-17T18:47:14;20.27;;;12.70;;
4089;SDS011;2059;48.538;12.146;2022-10-17T18:52:17;14.80;;;12.40;;
4089;SDS011;2059;48.538;12.146;2022-10-17T18:57:19;16.20;;;12.40;;
4089;SDS011;2059;48.538;12.146;2022-10-17T19:02:21;16.30;;;12.60;;
4089;SDS011;2059;48.538;12.146;2022-10-17T19:07:25;15.27;;;11.10;;
4089;SDS011;2059;48.538;12.146;2022-10-17T19:12:27;16.40;;;12.17;;
4089;SDS011;2059;48.538;12.146;2022-10-17T19:17:29;13.37;;;11.20;;
4089;SDS011;2059;48.538;12.146;2022-10-17T19:22:32;11.90;;;10.67;;
4089;SDS011;2059;48.538;12.146;2022-10-17T19:27:34;17.10;;;11.63;;
4089;SDS011;2059;48.538;12.146;2022-10-17T19:32:40;18.53;;;12.20;;
4089;SDS011;2059;48.538;12.146;2022-10-17T19:37:43;17.60;;;12.30;;
4089;SDS011;2059;48.538;12.146;2022-10-17T19:42:45;13.57;;;12.13;;
4089;SDS011;2059;48.538;12.146;2022-10-17T19:47:47;16.53;;;13.07;;
4089;SDS011;2059;48.538;12.146;2022-10-17T19:52:51;14.53;;;11.90;;
4089;SDS011;2059;48.538;12.146;2022-10-17T19:57:53;12.13;;;10.60;;
4089;SDS011;2059;48.538;12.146;2022-10-17T20:03:00;16.03;;;13.10;;
4089;SDS011;2059;48.538;12.146;2022-10-17T20:08:06;12.93;;;11.60;;
4089;SDS011;2059;48.538;12.146;2022-10-17T20:13:17;12.00;;;10.33;;
4089;SDS011;2059;48.538;12.146;2022-10-17T20:18:25;14.50;;;13.10;;
4089;SDS011;2059;48.538;12.146;2022-10-17T20:23:30;12.67;;;10.20;;
4089;SDS011;2059;48.538;12.146;2022-10-17T20:28:32;15.40;;;10.17;;
4089;SDS011;2059;48.538;12.146;2022-10-17T20:33:34;11.57;;;9.83;;
4089;SDS011;2059;48.538;12.146;2022-10-17T20:38:41;14.03;;;9.80;;
4089;SDS011;2059;48.538;12.146;2022-10-17T20:43:44;12.93;;;9.50;;
4089;SDS011;2059;48.538;12.146;2022-10-17T20:48:52;9.80;;;8.80;;
4089;SDS011;2059;48.538;12.146;2022-10-17T20:54:00;10.67;;;9.67;;
4089;SDS011;2059;48.538;12.146;2022-10-17T20:59:03;15.53;;;13.20;;
4089;SDS011;2059;48.538;12.146;2022-10-17T21:04:07;15.60;;;14.20;;
4089;SDS011;2059;48.538;12.146;2022-10-17T21:09:11;23.33;;;17.30;;
4089;SDS011;2059;48.538;12.146;2022-10-17T21:14:16;18.43;;;16.43;;
4089;SDS011;2059;48.538;12.146;2022-10-17T21:19:20;18.63;;;15.00;;
4089;SDS011;2059;48.538;12.146;2022-10-17T21:24:25;17.83;;;16.03;;
4089;SDS011;2059;48.538;12.146;2022-10-17T21:29:27;25.63;;;18.87;;
4089;SDS011;2059;48.538;12.146;2022-10-17T21:34:28;19.60;;;16.87;;
4089;SDS011;2059;48.538;12.146;2022-10-17T21:39:32;14.90;;;13.47;;
4089;SDS011;2059;48.538;12.146;2022-10-17T21:44:34;15.00;;;13.70;;
4089;SDS011;2059;48.538;12.146;2022-10-17T21:49:36;22.17;;;18.97;;
4089;SDS011;2059;48.538;12.146;2022-10-17T21:54:39;18.83;;;16.57;;
4089;SDS011;2059;48.538;12.146;2022-10-17T21:59:41;19.37;;;14.37;;
4089;SDS011;2059;48.538;12.146;2022-10-17T22:04:43;14.83;;;13.30;;
4089;SDS011;2059;48.538;12.146;2022-10-17T22:09:46;15.57;;;13.40;;
4089;SDS011;2059;48.538;12.146;2022-10-17T22:14:48;17.10;;;15.40;;
4089;SDS011;2059;48.538;12.146;2022-10-17T22:19:50;34.30;;;22.73;;
4089;SDS011;2059;48.538;12.146;2022-10-17T22:24:54;25.67;;;20.63;;
4089;SDS011;2059;48.538;12.146;2022-10-17T22:29:55;15.60;;;13.77;;
4089;SDS011;2059;48.538;12.146;2022-10-17T22:34:57;16.00;;;14.40;;
4089;SDS011;2059;48.538;12.146;2022-10-17T22:40:01;15.33;;;11.40;;
4089;SDS011;2059;48.538;12.146;2022-10-17T22:45:03;15.80;;;9.77;;
4089;SDS011;2059;48.538;12.146;2022-10-17T22:50:06;11.23;;;9.70;;
4089;SDS011;2059;48.538;12.146;2022-10-17T22:55:10;13.80;;;12.07;;
4089;SDS011;2059;48.538;12.146;2022-10-17T23:00:12;11.20;;;9.47;;
4089;SDS011;2059;48.538;12.146;2022-10-17T23:05:16;10.03;;;9.00;;
4089;SDS011;2059;48.538;12.146;2022-10-17T23:10:19;12.80;;;9.70;;
4089;SDS011;2059;48.538;12.146;2022-10-17T23:15:21;11.97;;;10.97;;
4089;SDS011;2059;48.538;12.146;2022-10-17T23:20:23;12.50;;;11.20;;
4089;SDS011;2059;48.538;12.146;2022-10-17T23:25:26;11.20;;;10.10;;
4089;SDS011;2059;48.538;12.146;2022-10-17T23:30:30;13.10;;;10.60;;
4089;SDS011;2059;48.538;12.146;2022-10-17T23:35:32;13.90;;;12.50;;
4089;SDS011;2059;48.538;12.146;2022-10-17T23:40:35;12.83;;;9.70;;
4089;SDS011;2059;48.538;12.146;2022-10-17T23:45:37;19.30;;;12.50;;
4089;SDS011;2059;48.538;12.146;2022-10-17T23:50:39;13.67;;;11.63;;
4089;SDS011;2059;48.538;12.146;2022-10-17T23:55:43;13.13;;;11.17;;
